createdAt,value
2023-01-08T00:02:08.382Z,-16.56
2023-01-08T00:04:37.702Z,-16.52
2023-01-08T00:07:06.548Z,-16.50
2023-01-08T00:09:35.442Z,-16.42
2023-01-08T00:12:04.372Z,-16.42
2023-01-08T00:14:33.188Z,-16.34
2023-01-08T00:17:03.454Z,-16.34
2023-01-08T00:19:32.286Z,-16.28
2023-01-08T00:22:01.138Z,-16.25
2023-01-08T00:24:29.988Z,-16.22
2023-01-08T00:26:58.837Z,-16.19
2023-01-08T00:29:27.754Z,-16.15
2023-01-08T00:31:56.554Z,-16.13
2023-01-08T00:34:25.439Z,-16.14
2023-01-08T00:36:54.266Z,-16.14
2023-01-08T00:39:23.297Z,-16.08
2023-01-08T00:41:52.079Z,-16.06
2023-01-08T00:44:21.188Z,-15.98
2023-01-08T00:46:49.993Z,-15.96
2023-01-08T00:49:19.063Z,-15.94
2023-01-08T00:51:47.842Z,-15.85
2023-01-08T00:54:16.696Z,-15.82
2023-01-08T00:56:45.473Z,-15.70
2023-01-08T00:59:14.273Z,-15.61
2023-01-08T01:01:44.131Z,-15.53
2023-01-08T01:04:13.127Z,-15.48
2023-01-08T01:06:43.300Z,-15.40
2023-01-08T01:09:12.523Z,-15.33
2023-01-08T01:11:41.576Z,-15.31
2023-01-08T01:14:10.977Z,-15.25
2023-01-08T01:16:41.959Z,-15.25
2023-01-08T01:19:11.373Z,-15.24
2023-01-08T01:21:40.176Z,-15.25
2023-01-08T01:24:11.864Z,-15.24
2023-01-08T01:26:40.774Z,-15.23
2023-01-08T01:29:09.750Z,-15.20
2023-01-08T01:31:38.570Z,-15.20
2023-01-08T01:34:07.334Z,-15.24
2023-01-08T01:36:36.736Z,-15.22
2023-01-08T01:39:06.226Z,-15.24
2023-01-08T01:41:43.900Z,-15.19
2023-01-08T01:44:40.229Z,-15.15
2023-01-08T01:47:24.001Z,-15.15
2023-01-08T01:50:16.537Z,-15.14
2023-01-08T01:53:13.480Z,-15.10
2023-01-08T01:55:44.679Z,-15.08
2023-01-08T01:58:18.303Z,-15.00
2023-01-08T02:00:48.410Z,-14.86
2023-01-08T02:03:19.015Z,-14.74
2023-01-08T02:06:09.041Z,-14.62
2023-01-08T02:08:43.736Z,-14.50
2023-01-08T02:11:17.632Z,-14.40
2023-01-08T02:13:55.375Z,-14.35
2023-01-08T02:16:35.860Z,-14.34
2023-01-08T02:19:17.331Z,-14.26
2023-01-08T02:21:54.942Z,-14.19
2023-01-08T02:24:29.975Z,-14.10
2023-01-08T02:27:02.237Z,-14.01
2023-01-08T02:29:33.336Z,-13.90
2023-01-08T02:32:03.170Z,-13.63
2023-01-08T02:34:33.089Z,-13.35
2023-01-08T02:37:02.884Z,-13.34
2023-01-08T02:39:47.104Z,-13.43
2023-01-08T02:42:22.464Z,-13.54
2023-01-08T02:45:06.868Z,-13.69
2023-01-08T02:47:42.758Z,-13.81
2023-01-08T02:50:17.123Z,-13.88
2023-01-08T02:52:56.996Z,-13.88
2023-01-08T02:55:29.131Z,-13.97
2023-01-08T02:57:59.434Z,-13.86
2023-01-08T03:00:29.665Z,-13.81
2023-01-08T03:03:17.481Z,-13.77
2023-01-08T03:05:51.004Z,-13.67
2023-01-08T03:08:20.901Z,-13.50
2023-01-08T03:10:59.087Z,-13.26
2023-01-08T03:13:38.413Z,-13.03
2023-01-08T03:16:17.363Z,-12.92
2023-01-08T03:19:02.049Z,-12.94
2023-01-08T03:21:32.558Z,-13.12
2023-01-08T03:24:02.774Z,-13.21
2023-01-08T03:26:33.935Z,-13.30
2023-01-08T03:29:03.891Z,-13.28
2023-01-08T03:31:37.131Z,-13.23
2023-01-08T03:34:07.131Z,-13.18
2023-01-08T03:36:39.472Z,-13.15
2023-01-08T03:39:17.568Z,-13.18
2023-01-08T03:41:49.034Z,-13.16
2023-01-08T03:44:18.051Z,-13.12
2023-01-08T03:46:52.286Z,-12.98
2023-01-08T03:49:23.673Z,-12.89
2023-01-08T03:51:52.497Z,-12.84
2023-01-08T03:54:29.532Z,-12.76
2023-01-08T03:56:58.794Z,-12.67
2023-01-08T03:59:27.722Z,-12.58
2023-01-08T04:01:57.490Z,-12.44
2023-01-08T04:04:26.684Z,-12.27
2023-01-08T04:06:55.556Z,-12.14
2023-01-08T04:09:24.395Z,-12.08
2023-01-08T04:11:53.183Z,-12.08
2023-01-08T04:14:22.009Z,-12.02
2023-01-08T04:16:50.901Z,-12.10
2023-01-08T04:19:19.915Z,-12.09
2023-01-08T04:21:52.283Z,-12.04
2023-01-08T04:24:21.334Z,-11.98
2023-01-08T04:26:50.151Z,-11.97
2023-01-08T04:29:19.237Z,-11.89
2023-01-08T04:31:48.313Z,-11.83
2023-01-08T04:34:17.236Z,-11.91
2023-01-08T04:36:46.349Z,-11.92
2023-01-08T04:39:17.101Z,-11.91
2023-01-08T04:41:47.380Z,-11.79
2023-01-08T04:44:16.248Z,-11.67
2023-01-08T04:46:45.173Z,-11.70
2023-01-08T04:49:14.725Z,-11.70
2023-01-08T04:51:43.787Z,-11.78
2023-01-08T04:54:12.613Z,-11.92
2023-01-08T04:56:41.534Z,-11.99
2023-01-08T04:59:10.555Z,-11.99
2023-01-08T05:01:40.647Z,-11.97
2023-01-08T05:04:12.447Z,-11.83
2023-01-08T05:06:41.432Z,-11.77
2023-01-08T05:09:10.397Z,-11.56
2023-01-08T05:11:39.399Z,-11.39
2023-01-08T05:14:08.217Z,-11.35
2023-01-08T05:16:37.200Z,-11.32
2023-01-08T05:19:06.235Z,-11.20
2023-01-08T05:21:35.296Z,-11.19
2023-01-08T05:24:04.238Z,-11.12
2023-01-08T05:26:33.581Z,-11.11
2023-01-08T05:29:02.700Z,-11.10
2023-01-08T05:31:31.656Z,-11.13
2023-01-08T05:34:01.429Z,-11.15
2023-01-08T05:36:31.670Z,-11.07
2023-01-08T05:39:00.609Z,-10.97
2023-01-08T05:41:29.511Z,-10.85
2023-01-08T05:43:58.412Z,-10.83
2023-01-08T05:46:27.367Z,-10.72
2023-01-08T05:48:56.199Z,-10.60
2023-01-08T05:51:25.020Z,-10.39
2023-01-08T05:53:53.947Z,-10.16
2023-01-08T05:56:23.221Z,-9.98
2023-01-08T05:58:55.851Z,-9.98
2023-01-08T06:01:25.773Z,-10.17
2023-01-08T06:03:59.506Z,-10.39
2023-01-08T06:06:28.419Z,-10.28
2023-01-08T06:08:57.379Z,-10.24
2023-01-08T06:11:26.244Z,-10.22
2023-01-08T06:13:55.436Z,-10.17
2023-01-08T06:16:24.397Z,-10.13
2023-01-08T06:18:53.217Z,-10.05
2023-01-08T06:21:22.114Z,-9.99
2023-01-08T06:23:50.967Z,-9.94
2023-01-08T06:26:19.861Z,-9.89
2023-01-08T06:28:49.345Z,-9.87
2023-01-08T06:31:18.292Z,-9.97
2023-01-08T06:33:47.296Z,-10.12
2023-01-08T06:36:16.166Z,-10.11
2023-01-08T06:38:45.095Z,-10.02
2023-01-08T06:41:14.772Z,-9.87
2023-01-08T06:43:43.566Z,-9.87
2023-01-08T06:46:12.494Z,-9.79
2023-01-08T06:48:41.509Z,-9.78
2023-01-08T06:51:10.322Z,-9.99
2023-01-08T06:53:39.165Z,-10.12
2023-01-08T06:56:12.655Z,-10.11
2023-01-08T06:58:41.596Z,-10.20
2023-01-08T07:01:16.573Z,-10.21
2023-01-08T07:03:46.050Z,-10.16
2023-01-08T07:06:20.698Z,-10.03
2023-01-08T07:08:50.135Z,-9.98
2023-01-08T07:11:19.435Z,-10.03
2023-01-08T07:13:48.391Z,-10.07
2023-01-08T07:16:17.450Z,-10.14
2023-01-08T07:18:46.482Z,-10.25
2023-01-08T07:21:15.360Z,-10.26
2023-01-08T07:23:44.263Z,-10.22
2023-01-08T07:26:13.152Z,-10.26
2023-01-08T07:28:42.990Z,-10.30
2023-01-08T07:31:11.909Z,-10.33
2023-01-08T07:33:40.924Z,-10.33
2023-01-08T07:36:10.139Z,-10.34
2023-01-08T07:38:39.711Z,-10.33
2023-01-08T07:41:08.748Z,-10.36
2023-01-08T07:43:37.609Z,-10.45
2023-01-08T07:46:06.708Z,-10.52
2023-01-08T07:48:35.711Z,-10.65
2023-01-08T07:51:06.628Z,-10.74
2023-01-08T07:53:37.316Z,-10.76
2023-01-08T07:56:08.653Z,-10.83
2023-01-08T07:58:38.434Z,-10.87
2023-01-08T08:01:11.895Z,-10.93
2023-01-08T08:03:41.853Z,-10.98
2023-01-08T08:06:11.083Z,-11.00
2023-01-08T08:08:42.104Z,-11.10
2023-01-08T08:11:11.572Z,-11.18
2023-01-08T08:13:45.346Z,-11.23
2023-01-08T08:16:14.197Z,-11.34
2023-01-08T08:18:43.157Z,-11.39
2023-01-08T08:21:12.040Z,-11.47
2023-01-08T08:23:40.825Z,-11.53
2023-01-08T08:26:09.814Z,-11.57
2023-01-08T08:28:38.721Z,-11.61
2023-01-08T08:31:07.561Z,-11.61
2023-01-08T08:33:36.460Z,-11.64
2023-01-08T08:36:05.572Z,-11.60
2023-01-08T08:38:34.464Z,-11.58
2023-01-08T08:41:03.473Z,-11.53
2023-01-08T08:43:32.435Z,-11.51
2023-01-08T08:46:01.240Z,-11.47
2023-01-08T08:48:30.083Z,-11.49
2023-01-08T08:50:58.949Z,-11.49
2023-01-08T08:53:28.075Z,-11.49
2023-01-08T08:55:59.702Z,-11.48
2023-01-08T08:58:28.707Z,-11.48
2023-01-08T09:01:04.279Z,-11.55
2023-01-08T09:03:33.443Z,-11.54
2023-01-08T09:06:02.341Z,-11.56
2023-01-08T09:08:31.352Z,-11.55
2023-01-08T09:11:00.311Z,-11.57
2023-01-08T09:13:29.662Z,-11.59
2023-01-08T09:16:02.210Z,-11.56
2023-01-08T09:18:31.244Z,-11.57
2023-01-08T09:21:04.636Z,-11.56
2023-01-08T09:23:34.211Z,-11.51
2023-01-08T09:26:04.619Z,-11.47
2023-01-08T09:28:34.776Z,-11.44
2023-01-08T09:31:04.613Z,-11.43
2023-01-08T09:33:33.861Z,-11.42
2023-01-08T09:36:02.757Z,-11.30
2023-01-08T09:38:31.681Z,-11.27
2023-01-08T09:41:10.983Z,-11.23
2023-01-08T09:43:44.559Z,-11.15
2023-01-08T09:46:15.806Z,-11.09
2023-01-08T09:48:45.582Z,-11.06
2023-01-08T09:51:17.172Z,-11.01
2023-01-08T09:53:46.585Z,-10.99
2023-01-08T09:56:18.900Z,-10.98
2023-01-08T09:58:53.934Z,-11.05
2023-01-08T10:01:38.142Z,-10.93
2023-01-08T10:04:14.142Z,-10.94
2023-01-08T10:06:51.513Z,-10.90
2023-01-08T10:09:26.536Z,-10.84
2023-01-08T10:11:59.196Z,-10.79
2023-01-08T10:14:40.921Z,-10.78
2023-01-08T10:17:22.758Z,-10.72
2023-01-08T10:19:52.212Z,-10.65
2023-01-08T10:22:23.987Z,-10.61
2023-01-08T10:24:52.980Z,-10.57
2023-01-08T10:27:24.996Z,-10.52
2023-01-08T10:29:53.968Z,-10.48
2023-01-08T10:32:35.236Z,-10.45
2023-01-08T10:35:07.607Z,-10.42
2023-01-08T10:37:43.127Z,-10.35
2023-01-08T10:40:32.930Z,-10.30
2023-01-08T10:43:34.514Z,-10.27
2023-01-08T10:46:09.422Z,-10.28
2023-01-08T10:48:45.345Z,-10.21
2023-01-08T10:51:25.885Z,-10.19
2023-01-08T10:53:57.564Z,-10.12
2023-01-08T10:56:27.816Z,-10.06
2023-01-08T10:58:58.568Z,-10.06
2023-01-08T11:01:33.334Z,-10.01
2023-01-08T11:04:05.785Z,-9.99
2023-01-08T11:06:40.255Z,-9.96
2023-01-08T11:09:33.938Z,-9.96
2023-01-08T11:12:03.057Z,-10.01
2023-01-08T11:14:35.959Z,-10.00
2023-01-08T11:17:12.423Z,-9.99
2023-01-08T11:19:41.583Z,-9.97
2023-01-08T11:22:22.799Z,-9.98
2023-01-08T11:24:53.758Z,-9.92
2023-01-08T11:27:22.698Z,-9.91
2023-01-08T11:29:56.152Z,-9.89
2023-01-08T11:32:25.018Z,-9.88
2023-01-08T11:35:15.624Z,-9.86
2023-01-08T11:37:54.366Z,-9.86
2023-01-08T11:40:51.947Z,-9.88
2023-01-08T11:43:42.308Z,-9.87
2023-01-08T11:46:53.506Z,-9.85
2023-01-08T11:49:51.711Z,-9.85
2023-01-08T11:53:05.006Z,-9.84
2023-01-08T11:56:01.834Z,-9.81
2023-01-08T11:58:56.540Z,-9.86
2023-01-08T12:01:28.815Z,-9.80
2023-01-08T12:04:33.151Z,-9.76
2023-01-08T12:07:31.583Z,-9.73
2023-01-08T12:10:15.142Z,-9.71
2023-01-08T12:12:57.288Z,-9.68
2023-01-08T12:15:53.871Z,-9.64
2023-01-08T12:18:36.677Z,-9.64
2023-01-08T12:21:11.714Z,-9.63
2023-01-08T12:24:12.064Z,-9.58
2023-01-08T12:27:03.733Z,-9.60
2023-01-08T12:29:52.231Z,-9.55
2023-01-08T12:32:30.086Z,-9.52
2023-01-08T12:35:01.892Z,-9.53
2023-01-08T12:37:52.100Z,-9.51
2023-01-08T12:40:23.862Z,-9.49
2023-01-08T12:43:00.439Z,-9.45
2023-01-08T12:45:35.972Z,-9.43
2023-01-08T12:48:21.419Z,-9.36
2023-01-08T12:50:58.137Z,-9.32
2023-01-08T12:53:36.041Z,-9.30
2023-01-08T12:56:51.908Z,-9.30
2023-01-08T12:59:42.292Z,-9.31
2023-01-08T13:02:36.163Z,-9.32
2023-01-08T13:05:20.215Z,-9.36
2023-01-08T13:07:53.398Z,-9.36
2023-01-08T13:10:36.051Z,-9.31
2023-01-08T13:13:06.493Z,-9.30
2023-01-08T13:15:36.876Z,-9.25
2023-01-08T13:18:25.892Z,-9.19
2023-01-08T13:21:00.303Z,-9.14
2023-01-08T13:23:31.973Z,-9.08
2023-01-08T13:26:02.752Z,-9.07
2023-01-08T13:28:45.009Z,-8.99
2023-01-08T13:31:25.012Z,-8.97
2023-01-08T13:33:55.071Z,-8.95
2023-01-08T13:36:28.325Z,-8.92
2023-01-08T13:39:23.977Z,-8.91
2023-01-08T13:42:16.997Z,-8.89
2023-01-08T13:45:05.711Z,-8.85
2023-01-08T13:47:37.869Z,-8.83
2023-01-08T13:50:18.810Z,-8.79
2023-01-08T13:52:57.330Z,-8.80
2023-01-08T13:55:34.197Z,-8.77
2023-01-08T13:58:09.145Z,-8.78
2023-01-08T14:00:45.095Z,-8.69
2023-01-08T14:03:38.141Z,-8.67
2023-01-08T14:06:24.176Z,-8.58
2023-01-08T14:09:00.592Z,-8.52
2023-01-08T14:11:34.113Z,-8.47
2023-01-08T14:14:03.730Z,-8.40
2023-01-08T14:16:34.207Z,-8.45
2023-01-08T14:19:06.142Z,-8.29
2023-01-08T14:21:35.315Z,-8.24
2023-01-08T14:24:05.401Z,-8.32
2023-01-08T14:26:37.285Z,-8.19
2023-01-08T14:29:19.874Z,-8.18
2023-01-08T14:31:53.959Z,-8.20
2023-01-08T14:34:26.054Z,-8.13
2023-01-08T14:36:56.401Z,-8.13
2023-01-08T14:39:26.369Z,-8.04
2023-01-08T14:42:15.008Z,-7.99
2023-01-08T14:44:46.679Z,-7.96
2023-01-08T14:47:20.854Z,-7.89
2023-01-08T14:49:53.950Z,-7.86
2023-01-08T14:52:22.989Z,-7.85
2023-01-08T14:54:56.523Z,-7.86
2023-01-08T14:57:27.523Z,-7.88
2023-01-08T14:59:59.771Z,-7.93
2023-01-08T15:02:35.400Z,-8.01
2023-01-08T15:05:20.120Z,-7.93
2023-01-08T15:08:05.256Z,-8.00
2023-01-08T15:10:42.793Z,-7.96
2023-01-08T15:13:26.307Z,-8.00
2023-01-08T15:16:01.729Z,-7.95
2023-01-08T15:18:30.787Z,-8.01
2023-01-08T15:20:59.965Z,-7.99
2023-01-08T15:23:38.607Z,-7.96
2023-01-08T15:26:12.054Z,-8.00
2023-01-08T15:28:56.687Z,-8.00
2023-01-08T15:31:32.666Z,-8.00
2023-01-08T15:34:02.024Z,-8.04
2023-01-08T15:36:31.165Z,-8.04
2023-01-08T15:39:00.145Z,-8.12
2023-01-08T15:41:58.144Z,-8.07
2023-01-08T15:44:27.025Z,-8.06
2023-01-08T15:46:55.849Z,-8.10
2023-01-08T15:49:24.880Z,-8.18
2023-01-08T15:51:54.242Z,-8.06
2023-01-08T15:54:26.788Z,-8.07
2023-01-08T15:56:55.652Z,-8.05
2023-01-08T15:59:24.624Z,-8.02
2023-01-08T16:01:54.303Z,-8.07
2023-01-08T16:04:24.083Z,-8.12
2023-01-08T16:06:53.164Z,-8.22
2023-01-08T16:09:22.114Z,-8.36
2023-01-08T16:11:51.767Z,-8.46
2023-01-08T16:14:20.625Z,-8.61
2023-01-08T16:16:49.455Z,-8.71
2023-01-08T16:19:18.471Z,-8.79
2023-01-08T16:21:48.867Z,-8.91
2023-01-08T16:24:17.679Z,-9.01
2023-01-08T16:26:46.445Z,-9.12
2023-01-08T16:29:15.308Z,-9.20
2023-01-08T16:31:48.575Z,-9.26
2023-01-08T16:34:17.579Z,-9.32
2023-01-08T16:36:46.389Z,-9.35
2023-01-08T16:39:15.361Z,-9.34
2023-01-08T16:41:44.392Z,-9.38
2023-01-08T16:44:26.878Z,-9.44
2023-01-08T16:46:56.527Z,-9.45
2023-01-08T16:49:25.493Z,-9.51
2023-01-08T16:51:55.026Z,-9.51
2023-01-08T16:54:23.887Z,-9.55
2023-01-08T16:56:53.388Z,-9.62
2023-01-08T16:59:23.890Z,-9.68
2023-01-08T17:01:54.777Z,-9.69
2023-01-08T17:04:23.956Z,-9.75
2023-01-08T17:06:52.928Z,-9.76
2023-01-08T17:09:21.983Z,-9.73
2023-01-08T17:11:50.939Z,-9.76
2023-01-08T17:14:19.891Z,-9.75
2023-01-08T17:16:49.773Z,-9.76
2023-01-08T17:19:18.589Z,-9.79
2023-01-08T17:21:48.717Z,-9.80
2023-01-08T17:24:17.590Z,-9.77
2023-01-08T17:26:46.680Z,-9.77
2023-01-08T17:29:15.609Z,-9.78
2023-01-08T17:31:44.525Z,-9.79
2023-01-08T17:34:14.401Z,-9.82
2023-01-08T17:36:43.501Z,-9.76
2023-01-08T17:39:12.873Z,-9.75
2023-01-08T17:42:00.454Z,-9.75
2023-01-08T17:44:31.641Z,-9.71
2023-01-08T17:47:00.518Z,-9.74
2023-01-08T17:49:31.176Z,-9.73
2023-01-08T17:52:00.161Z,-9.77
2023-01-08T17:54:29.596Z,-9.81
2023-01-08T17:56:58.584Z,-9.79
2023-01-08T17:59:27.615Z,-9.82
2023-01-08T18:01:58.476Z,-9.83
2023-01-08T18:04:27.565Z,-9.83
2023-01-08T18:06:56.615Z,-9.82
2023-01-08T18:09:25.433Z,-9.79
2023-01-08T18:11:54.341Z,-9.82
2023-01-08T18:14:23.366Z,-9.71
2023-01-08T18:16:53.698Z,-9.68
2023-01-08T18:19:22.626Z,-9.70
2023-01-08T18:21:51.586Z,-9.67
2023-01-08T18:24:20.475Z,-9.69
2023-01-08T18:26:50.685Z,-9.65
2023-01-08T18:29:19.603Z,-9.69
2023-01-08T18:31:49.026Z,-9.71
2023-01-08T18:34:17.951Z,-9.71
2023-01-08T18:36:46.820Z,-9.74
2023-01-08T18:39:15.853Z,-9.73
2023-01-08T18:42:03.230Z,-9.71
2023-01-08T18:44:32.114Z,-9.71
2023-01-08T18:47:00.952Z,-9.69
2023-01-08T18:49:29.802Z,-9.66
2023-01-08T18:51:58.600Z,-9.61
2023-01-08T18:54:27.515Z,-9.58
2023-01-08T18:56:56.544Z,-9.58
2023-01-08T18:59:25.494Z,-9.52
2023-01-08T19:01:54.811Z,-9.54
2023-01-08T19:04:23.882Z,-9.60
2023-01-08T19:06:52.710Z,-9.58
2023-01-08T19:09:21.887Z,-9.64
2023-01-08T19:11:51.022Z,-9.70
2023-01-08T19:14:19.841Z,-9.77
2023-01-08T19:16:49.991Z,-9.80
2023-01-08T19:19:19.799Z,-9.87
2023-01-08T19:21:48.681Z,-9.95
2023-01-08T19:24:17.779Z,-9.97
2023-01-08T19:26:46.566Z,-10.00
2023-01-08T19:29:15.376Z,-10.05
2023-01-08T19:31:44.492Z,-10.08
2023-01-08T19:34:13.395Z,-10.11
2023-01-08T19:36:43.756Z,-10.10
2023-01-08T19:39:12.863Z,-10.08
2023-01-08T19:42:00.308Z,-10.11
2023-01-08T19:44:29.123Z,-10.09
2023-01-08T19:46:57.910Z,-10.08
2023-01-08T19:49:26.895Z,-10.08
2023-01-08T19:51:55.732Z,-10.07
2023-01-08T19:54:26.458Z,-10.06
2023-01-08T19:56:56.731Z,-10.04
2023-01-08T19:59:25.705Z,-10.00
2023-01-08T20:01:55.597Z,-10.02
2023-01-08T20:04:24.779Z,-10.03
2023-01-08T20:06:53.767Z,-10.03
2023-01-08T20:09:22.487Z,-10.07
2023-01-08T20:11:51.425Z,-10.12
2023-01-08T20:14:21.246Z,-10.16
2023-01-08T20:16:50.187Z,-10.20
2023-01-08T20:19:19.203Z,-10.25
2023-01-08T20:21:48.341Z,-10.26
2023-01-08T20:24:17.168Z,-10.27
2023-01-08T20:26:47.328Z,-10.30
2023-01-08T20:29:17.583Z,-10.31
2023-01-08T20:31:46.700Z,-10.35
2023-01-08T20:34:16.905Z,-10.35
2023-01-08T20:36:47.846Z,-10.38
2023-01-08T20:39:18.394Z,-10.37
2023-01-08T20:41:55.674Z,-10.39
2023-01-08T20:44:33.993Z,-10.43
2023-01-08T20:47:03.454Z,-10.41
2023-01-08T20:49:32.270Z,-10.43
2023-01-08T20:52:01.201Z,-10.40
2023-01-08T20:54:30.755Z,-10.38
2023-01-08T20:57:00.819Z,-10.35
2023-01-08T20:59:30.394Z,-10.33
2023-01-08T21:01:59.682Z,-10.35
2023-01-08T21:04:29.246Z,-10.35
2023-01-08T21:06:58.087Z,-10.38
2023-01-08T21:09:27.056Z,-10.35
2023-01-08T21:11:55.948Z,-10.32
2023-01-08T21:14:24.707Z,-10.38
2023-01-08T21:16:53.523Z,-10.35
2023-01-08T21:19:22.308Z,-10.38
2023-01-08T21:21:51.267Z,-10.39
2023-01-08T21:24:20.925Z,-10.40
2023-01-08T21:26:49.682Z,-10.40
2023-01-08T21:29:20.429Z,-10.39
2023-01-08T21:31:49.375Z,-10.37
2023-01-08T21:34:18.337Z,-10.33
2023-01-08T21:36:47.165Z,-10.40
2023-01-08T21:39:16.083Z,-10.31
2023-01-08T21:42:03.454Z,-10.31
2023-01-08T21:44:50.756Z,-10.28
2023-01-08T21:47:19.701Z,-10.23
2023-01-08T21:49:48.593Z,-10.19
2023-01-08T21:52:35.818Z,-10.13
2023-01-08T21:55:04.997Z,-10.06
2023-01-08T21:57:39.859Z,-10.06
2023-01-08T22:00:11.449Z,-10.00
2023-01-08T22:02:40.972Z,-9.97
2023-01-08T22:05:10.605Z,-9.93
2023-01-08T22:07:39.476Z,-9.92
2023-01-08T22:10:09.153Z,-9.82
2023-01-08T22:12:38.180Z,-9.79
2023-01-08T22:15:07.572Z,-9.77
2023-01-08T22:17:37.080Z,-9.68
2023-01-08T22:20:08.602Z,-9.64
2023-01-08T22:22:37.708Z,-9.60
2023-01-08T22:25:07.098Z,-9.53
2023-01-08T22:27:35.836Z,-9.47
2023-01-08T22:30:07.186Z,-9.44
2023-01-08T22:32:37.230Z,-9.41
2023-01-08T22:35:06.523Z,-9.38
2023-01-08T22:37:37.293Z,-9.30
2023-01-08T22:40:06.454Z,-9.27
2023-01-08T22:42:35.203Z,-9.25
2023-01-08T22:45:04.203Z,-9.35
2023-01-08T22:47:33.057Z,-9.28
2023-01-08T22:50:01.957Z,-9.26
2023-01-08T22:52:31.800Z,-9.24
2023-01-08T22:55:00.639Z,-9.26
2023-01-08T22:57:29.927Z,-9.22
2023-01-08T22:59:58.747Z,-9.20
2023-01-08T23:02:28.099Z,-9.14
2023-01-08T23:04:57.543Z,-9.12
2023-01-08T23:07:26.414Z,-9.09
2023-01-08T23:09:55.307Z,-9.03
2023-01-08T23:12:24.255Z,-9.00
2023-01-08T23:14:53.194Z,-8.92
2023-01-08T23:17:21.897Z,-8.92
2023-01-08T23:19:50.681Z,-8.86
2023-01-08T23:22:19.540Z,-8.85
2023-01-08T23:24:48.331Z,-8.78
2023-01-08T23:27:17.232Z,-8.82
2023-01-08T23:29:46.051Z,-8.68
2023-01-08T23:32:14.809Z,-8.66
2023-01-08T23:34:43.981Z,-8.64
2023-01-08T23:37:12.766Z,-8.62
2023-01-08T23:39:41.559Z,-8.63
2023-01-08T23:42:10.443Z,-8.64
2023-01-08T23:44:39.434Z,-8.63
2023-01-08T23:47:08.479Z,-8.65
2023-01-08T23:49:37.400Z,-8.64
2023-01-08T23:52:06.234Z,-8.71
2023-01-08T23:54:36.441Z,-8.74
2023-01-08T23:57:09.878Z,-8.79
2023-01-08T23:59:38.771Z,-8.86
